createdAt,value
2018-02-23T00:02:19.165Z,13.40
2018-02-23T00:04:48.197Z,19.85
2018-02-23T00:07:16.434Z,13.30
2018-02-23T00:09:45.476Z,21.83
2018-02-23T00:12:13.726Z,14.38
2018-02-23T00:14:41.991Z,17.50
2018-02-23T00:17:11.007Z,14.37
2018-02-23T00:19:39.276Z,14.37
2018-02-23T00:22:08.314Z,15.07
2018-02-23T00:24:36.589Z,12.88
2018-02-23T00:27:04.894Z,13.70
2018-02-23T00:29:33.270Z,14.57
2018-02-23T00:32:01.645Z,16.43
2018-02-23T00:34:29.913Z,12.00
2018-02-23T00:36:58.179Z,13.95
2018-02-23T00:39:26.436Z,17.67
2018-02-23T00:41:55.498Z,15.85
2018-02-23T00:44:24.376Z,14.10
2018-02-23T00:46:52.673Z,11.25
2018-02-23T00:49:20.938Z,14.48
2018-02-23T00:51:49.213Z,12.30
2018-02-23T00:54:17.470Z,11.60
2018-02-23T00:56:45.766Z,12.50
2018-02-23T00:59:14.030Z,16.10
2018-02-23T01:01:42.307Z,14.00
2018-02-23T01:04:10.568Z,16.87
2018-02-23T01:06:39.612Z,16.02
2018-02-23T01:09:07.862Z,10.93
2018-02-23T01:11:37.002Z,14.25
2018-02-23T01:14:05.262Z,12.70
2018-02-23T01:16:33.550Z,12.85
2018-02-23T01:19:01.807Z,11.65
2018-02-23T01:21:30.124Z,16.30
2018-02-23T01:23:58.375Z,15.95
2018-02-23T01:26:27.633Z,16.77
2018-02-23T01:28:55.890Z,13.93
2018-02-23T01:31:24.195Z,14.50
2018-02-23T01:33:52.442Z,13.48
2018-02-23T01:36:20.745Z,12.65
2018-02-23T01:38:49.006Z,14.48
2018-02-23T01:41:17.284Z,10.85
2018-02-23T01:43:45.588Z,12.93
2018-02-23T01:46:13.863Z,13.75
2018-02-23T01:48:42.119Z,13.23
2018-02-23T01:51:10.397Z,11.85
2018-02-23T01:53:38.713Z,12.32
2018-02-23T01:56:06.994Z,12.13
2018-02-23T01:58:35.258Z,13.05
2018-02-23T02:01:03.548Z,14.27
2018-02-23T02:03:31.826Z,14.32
2018-02-23T02:06:00.126Z,11.02
2018-02-23T02:08:28.382Z,11.63
2018-02-23T02:10:56.688Z,13.02
2018-02-23T02:13:25.089Z,10.13
2018-02-23T02:15:53.358Z,15.35
2018-02-23T02:18:21.627Z,10.32
2018-02-23T02:20:50.002Z,12.15
2018-02-23T02:23:18.290Z,10.90
2018-02-23T02:25:46.566Z,15.55
2018-02-23T02:28:14.865Z,16.73
2018-02-23T02:30:43.341Z,9.65
2018-02-23T02:33:11.588Z,16.83
2018-02-23T02:35:39.850Z,12.50
2018-02-23T02:38:08.876Z,12.15
2018-02-23T02:40:37.148Z,13.43
2018-02-23T02:43:05.638Z,12.82
2018-02-23T02:45:33.933Z,14.80
2018-02-23T02:48:02.210Z,12.15
2018-02-23T02:50:30.479Z,13.43
2018-02-23T02:52:58.738Z,12.60
2018-02-23T02:55:27.885Z,14.07
2018-02-23T02:57:56.164Z,13.85
2018-02-23T03:00:25.418Z,15.85
2018-02-23T03:02:54.435Z,14.60
2018-02-23T03:05:22.710Z,14.20
2018-02-23T03:07:50.996Z,12.85
2018-02-23T03:10:19.306Z,18.37
2018-02-23T03:12:47.572Z,15.53
2018-02-23T03:15:15.836Z,16.05
2018-02-23T03:17:44.095Z,11.95
2018-02-23T03:20:13.141Z,12.25
2018-02-23T03:22:41.433Z,12.90
2018-02-23T03:25:09.690Z,11.48
2018-02-23T03:27:37.984Z,15.25
2018-02-23T03:30:06.283Z,11.18
2018-02-23T03:32:34.560Z,13.82
2018-02-23T03:35:02.816Z,16.10
2018-02-23T03:37:31.631Z,13.18
2018-02-23T03:39:59.897Z,12.95
2018-02-23T03:42:28.170Z,13.50
2018-02-23T03:44:56.421Z,15.82
2018-02-23T03:47:25.580Z,15.65
2018-02-23T03:49:53.839Z,14.75
2018-02-23T03:52:22.141Z,13.32
2018-02-23T03:54:50.391Z,11.10
2018-02-23T03:57:18.665Z,16.40
2018-02-23T03:59:46.986Z,12.93
2018-02-23T04:02:15.258Z,14.20
2018-02-23T04:04:43.510Z,12.55
2018-02-23T04:07:11.790Z,13.48
2018-02-23T04:09:40.047Z,11.02
2018-02-23T04:12:08.322Z,10.45
2018-02-23T04:14:36.577Z,15.80
2018-02-23T04:17:04.949Z,12.73
2018-02-23T04:19:33.220Z,12.45
2018-02-23T04:22:01.660Z,12.15
2018-02-23T04:24:30.693Z,13.35
2018-02-23T04:26:58.954Z,13.38
2018-02-23T04:29:27.207Z,11.15
2018-02-23T04:34:31.942Z,12.23
2018-02-23T04:37:00.326Z,13.35
2018-02-23T04:39:28.627Z,11.25
2018-02-23T04:41:56.924Z,11.38
2018-02-23T04:44:25.958Z,14.68
2018-02-23T04:46:54.235Z,10.02
2018-02-23T04:49:22.482Z,13.10
2018-02-23T04:51:51.530Z,14.38
2018-02-23T04:54:19.786Z,9.82
2018-02-23T04:56:48.059Z,13.18
2018-02-23T04:59:16.324Z,12.75
2018-02-23T05:01:45.405Z,14.07
2018-02-23T05:04:13.646Z,17.23
2018-02-23T05:06:41.922Z,13.65
2018-02-23T05:09:10.260Z,9.98
2018-02-23T05:11:39.291Z,11.05
2018-02-23T05:14:07.544Z,12.85
2018-02-23T05:16:36.607Z,11.70
2018-02-23T05:19:04.842Z,15.82
2018-02-23T05:21:33.171Z,17.95
2018-02-23T05:24:01.568Z,17.20
2018-02-23T05:26:29.811Z,11.93
2018-02-23T05:28:58.066Z,13.20
2018-02-23T05:31:26.341Z,14.13
2018-02-23T05:33:55.411Z,12.98
2018-02-23T05:36:23.767Z,15.43
2018-02-23T05:38:52.025Z,15.88
2018-02-23T05:41:20.324Z,13.57
2018-02-23T05:43:48.577Z,12.80
2018-02-23T05:46:16.854Z,13.30
2018-02-23T05:48:45.101Z,15.85
2018-02-23T05:51:13.384Z,15.27
2018-02-23T05:53:42.406Z,14.23
2018-02-23T05:56:10.758Z,13.68
2018-02-23T05:58:39.017Z,17.65
2018-02-23T06:01:07.290Z,13.48
2018-02-23T06:03:35.602Z,16.17
2018-02-23T06:06:03.895Z,15.50
2018-02-23T06:08:32.919Z,13.15
2018-02-23T06:11:01.267Z,16.75
2018-02-23T06:13:29.498Z,17.35
2018-02-23T06:16:03.528Z,14.60
2018-02-23T06:18:37.549Z,17.45
2018-02-23T06:21:05.929Z,15.15
2018-02-23T06:23:34.217Z,15.52
2018-02-23T06:26:02.841Z,13.95
2018-02-23T06:28:31.921Z,16.60
2018-02-23T06:31:00.203Z,15.82
2018-02-23T06:33:28.457Z,15.65
2018-02-23T06:35:56.730Z,19.23
2018-02-23T06:38:25.015Z,18.27
2018-02-23T06:40:53.280Z,15.10
2018-02-23T06:43:21.579Z,17.55
2018-02-23T06:45:49.838Z,15.52
2018-02-23T06:48:18.137Z,13.20
2018-02-23T06:50:46.385Z,15.18
2018-02-23T06:53:14.666Z,17.27
2018-02-23T06:55:42.921Z,10.63
2018-02-23T06:58:11.995Z,13.80
2018-02-23T07:00:40.239Z,12.45
2018-02-23T07:03:08.548Z,13.27
2018-02-23T07:05:36.820Z,17.02
2018-02-23T07:08:05.094Z,15.75
2018-02-23T07:10:33.353Z,12.88
2018-02-23T07:13:01.829Z,12.90
2018-02-23T07:15:30.086Z,17.77
2018-02-23T07:17:59.122Z,17.03
2018-02-23T07:20:27.373Z,21.33
2018-02-23T07:22:56.414Z,15.10
2018-02-23T07:25:24.666Z,16.90
2018-02-23T07:27:53.797Z,13.37
2018-02-23T07:30:22.088Z,15.97
2018-02-23T07:32:50.353Z,13.43
2018-02-23T07:35:18.586Z,14.00
2018-02-23T07:37:46.847Z,15.00
2018-02-23T07:40:15.101Z,13.00
2018-02-23T07:42:43.374Z,15.30
2018-02-23T07:45:11.619Z,14.93
2018-02-23T07:47:41.417Z,16.63
2018-02-23T07:50:09.674Z,17.33
2018-02-23T07:52:37.979Z,15.73
2018-02-23T07:55:06.237Z,17.13
2018-02-23T07:57:34.493Z,18.10
2018-02-23T08:00:02.772Z,13.93
2018-02-23T08:02:31.023Z,16.50
2018-02-23T08:05:00.046Z,17.33
2018-02-23T08:07:28.345Z,15.37
2018-02-23T08:09:56.607Z,19.07
2018-02-23T08:12:24.856Z,18.20
2018-02-23T08:14:53.902Z,15.93
2018-02-23T08:17:22.196Z,15.10
2018-02-23T08:19:50.557Z,17.93
2018-02-23T08:22:18.810Z,15.63
2018-02-23T08:24:48.023Z,20.77
2018-02-23T08:27:16.290Z,19.57
2018-02-23T08:29:45.429Z,18.77
2018-02-23T08:32:13.678Z,21.80
2018-02-23T08:34:41.939Z,17.93
2018-02-23T08:37:10.202Z,18.97
2018-02-23T08:39:39.974Z,21.97
2018-02-23T08:42:08.239Z,18.00
2018-02-23T08:44:36.526Z,21.23
2018-02-23T08:47:04.851Z,22.47
2018-02-23T08:49:33.117Z,20.23
2018-02-23T08:52:01.432Z,23.07
2018-02-23T08:54:29.687Z,23.67
2018-02-23T08:56:57.948Z,20.87
2018-02-23T08:59:26.205Z,23.43
2018-02-23T09:01:54.482Z,23.00
2018-02-23T09:04:23.519Z,20.30
2018-02-23T09:06:51.786Z,17.40
2018-02-23T09:09:20.041Z,21.90
2018-02-23T09:11:49.087Z,18.43
2018-02-23T09:14:17.426Z,23.40
2018-02-23T09:16:45.966Z,24.80
2018-02-23T09:19:15.722Z,26.10
2018-02-23T09:21:44.874Z,22.43
2018-02-23T09:24:13.204Z,22.53
2018-02-23T09:26:41.818Z,24.93
2018-02-23T09:29:10.482Z,23.47
2018-02-23T09:31:38.775Z,20.63
2018-02-23T09:34:18.813Z,24.50
2018-02-23T09:36:47.871Z,22.70
2018-02-23T09:39:16.114Z,23.70
2018-02-23T09:41:44.378Z,29.20
2018-02-23T09:44:14.199Z,24.07
2018-02-23T09:46:43.339Z,22.87
2018-02-23T09:49:11.672Z,25.20
2018-02-23T09:51:41.710Z,21.90
2018-02-23T09:54:10.058Z,24.63
2018-02-23T09:56:38.408Z,21.30
2018-02-23T09:59:06.611Z,19.43
2018-02-23T10:01:35.098Z,24.77
2018-02-23T10:04:03.350Z,21.00
2018-02-23T10:06:31.624Z,24.43
2018-02-23T10:08:59.906Z,29.67
2018-02-23T10:11:28.699Z,19.87
2018-02-23T10:13:56.966Z,20.70
2018-02-23T10:16:25.214Z,24.27
2018-02-23T10:18:53.483Z,21.63
2018-02-23T10:21:21.870Z,23.93
2018-02-23T10:23:50.119Z,22.67
2018-02-23T10:26:18.390Z,20.07
2018-02-23T10:28:46.655Z,21.43
2018-02-23T10:31:14.903Z,24.40
2018-02-23T10:33:43.928Z,21.90
2018-02-23T10:36:12.183Z,21.27
2018-02-23T10:38:40.444Z,21.80
2018-02-23T10:41:08.692Z,23.50
2018-02-23T10:43:36.950Z,25.33
2018-02-23T10:46:05.211Z,25.67
2018-02-23T10:48:34.307Z,23.90
2018-02-23T10:51:02.558Z,32.70
2018-02-23T10:53:30.835Z,22.40
2018-02-23T10:55:59.134Z,20.33
2018-02-23T10:58:27.371Z,25.17
2018-02-23T11:00:55.617Z,24.93
2018-02-23T11:03:24.662Z,23.90
2018-02-23T11:05:53.083Z,29.50
2018-02-23T11:08:21.668Z,24.10
2018-02-23T11:10:50.770Z,23.20
2018-02-23T11:13:19.031Z,21.57
2018-02-23T11:15:47.283Z,23.10
2018-02-23T11:18:15.551Z,21.27
2018-02-23T11:20:43.859Z,23.30
2018-02-23T11:23:12.122Z,19.40
2018-02-23T11:25:40.426Z,21.53
2018-02-23T11:28:08.702Z,23.53
2018-02-23T11:30:37.009Z,24.60
2018-02-23T11:33:05.371Z,24.00
2018-02-23T11:35:33.813Z,28.07
2018-02-23T11:38:02.132Z,27.97
2018-02-23T11:40:30.387Z,25.60
2018-02-23T11:42:58.689Z,23.93
2018-02-23T11:45:26.942Z,22.93
2018-02-23T11:47:55.206Z,22.73
2018-02-23T11:50:24.234Z,30.00
2018-02-23T11:52:52.566Z,24.47
2018-02-23T11:55:20.794Z,27.83
2018-02-23T11:57:49.070Z,24.37
2018-02-23T12:00:17.322Z,22.97
2018-02-23T12:02:45.596Z,22.20
2018-02-23T12:05:13.854Z,21.60
2018-02-23T12:07:42.120Z,28.83
2018-02-23T12:10:10.391Z,26.63
2018-02-23T12:12:38.646Z,26.57
2018-02-23T12:15:06.928Z,27.03
2018-02-23T12:17:36.058Z,27.70
2018-02-23T12:20:04.346Z,25.50
2018-02-23T12:22:33.037Z,27.30
2018-02-23T12:25:01.347Z,26.73
2018-02-23T12:27:29.582Z,29.90
2018-02-23T12:29:57.851Z,28.97
2018-02-23T12:32:26.156Z,26.23
2018-02-23T12:34:54.422Z,26.00
2018-02-23T12:37:22.677Z,24.07
2018-02-23T12:39:51.717Z,23.57
2018-02-23T12:42:19.980Z,25.37
2018-02-23T12:44:48.294Z,28.77
2018-02-23T12:47:16.543Z,26.63
2018-02-23T12:49:44.811Z,23.73
2018-02-23T12:52:13.844Z,27.90
2018-02-23T12:54:42.115Z,28.13
2018-02-23T12:57:10.366Z,26.50
2018-02-23T12:59:39.397Z,24.23
2018-02-23T13:02:07.646Z,24.00
2018-02-23T13:04:36.867Z,30.90
2018-02-23T13:07:05.431Z,23.07
2018-02-23T13:09:33.900Z,24.70
2018-02-23T13:12:02.431Z,25.40
2018-02-23T13:17:29.610Z,29.73
2018-02-23T13:19:57.873Z,25.43
2018-02-23T13:22:26.923Z,29.67
2018-02-23T13:24:55.193Z,25.23
2018-02-23T13:27:23.448Z,26.43
2018-02-23T13:29:51.723Z,27.57
2018-02-23T13:32:19.987Z,23.33
2018-02-23T13:34:49.032Z,24.23
2018-02-23T13:37:17.283Z,28.67
2018-02-23T13:39:51.316Z,29.70
2018-02-23T13:42:25.628Z,23.03
2018-02-23T13:44:53.964Z,25.93
2018-02-23T13:47:22.207Z,24.17
2018-02-23T13:49:50.474Z,27.83
2018-02-23T13:52:18.723Z,26.70
2018-02-23T13:54:52.612Z,30.20
2018-02-23T13:57:20.868Z,29.27
2018-02-23T13:59:49.131Z,28.90
2018-02-23T14:02:17.382Z,24.70
2018-02-23T14:04:46.460Z,23.80
2018-02-23T14:07:20.569Z,27.03
2018-02-23T14:09:49.182Z,31.50
2018-02-23T14:12:18.367Z,28.33
2018-02-23T14:14:46.670Z,27.53
2018-02-23T14:17:14.927Z,26.17
2018-02-23T14:19:43.170Z,30.33
2018-02-23T14:22:11.423Z,24.67
2018-02-23T14:24:40.558Z,25.50
2018-02-23T14:27:09.578Z,23.83
2018-02-23T14:29:37.840Z,30.20
2018-02-23T14:32:06.098Z,25.20
2018-02-23T14:34:34.363Z,25.53
2018-02-23T14:37:03.382Z,26.90
2018-02-23T14:39:31.658Z,25.53
2018-02-23T14:41:59.911Z,24.10
2018-02-23T14:44:28.178Z,26.30
2018-02-23T14:46:56.425Z,24.00
2018-02-23T14:49:24.697Z,20.57
2018-02-23T14:51:52.950Z,26.80
2018-02-23T14:54:21.222Z,30.63
2018-02-23T14:56:50.259Z,24.67
2018-02-23T14:59:18.536Z,28.03
2018-02-23T15:01:46.795Z,23.73
2018-02-23T15:04:15.079Z,24.70
2018-02-23T15:06:44.118Z,22.13
2018-02-23T15:09:13.134Z,30.87
2018-02-23T15:11:41.450Z,24.63
2018-02-23T15:14:10.454Z,22.07
2018-02-23T15:16:38.718Z,25.03
2018-02-23T15:19:07.742Z,24.17
2018-02-23T15:21:36.010Z,23.60
2018-02-23T15:24:04.385Z,22.53
2018-02-23T15:26:32.665Z,26.43
2018-02-23T15:29:01.674Z,25.73
2018-02-23T15:31:41.930Z,20.73
2018-02-23T15:34:10.952Z,24.20
2018-02-23T15:36:39.450Z,20.80
2018-02-23T15:39:07.703Z,26.73
2018-02-23T15:41:36.147Z,23.40
2018-02-23T15:44:04.401Z,21.80
2018-02-23T15:46:32.669Z,24.13
2018-02-23T15:49:06.591Z,26.20
2018-02-23T15:51:38.778Z,26.43
2018-02-23T15:54:07.056Z,25.53
2018-02-23T15:56:35.361Z,26.43
2018-02-23T15:59:03.615Z,24.50
2018-02-23T16:01:32.262Z,29.83
2018-02-23T16:04:01.270Z,28.67
2018-02-23T16:06:29.541Z,25.27
2018-02-23T16:08:58.554Z,22.10
2018-02-23T16:11:26.815Z,24.70
2018-02-23T16:13:55.854Z,22.20
2018-02-23T16:16:24.103Z,24.83
2018-02-23T16:18:53.138Z,23.63
2018-02-23T16:21:21.401Z,24.33
2018-02-23T16:23:49.701Z,24.33
2018-02-23T16:26:17.970Z,24.20
2018-02-23T16:28:46.226Z,22.97
2018-02-23T16:31:15.259Z,20.10
2018-02-23T16:33:43.508Z,25.40
2018-02-23T16:36:12.542Z,24.20
2018-02-23T16:38:40.790Z,25.70
2018-02-23T16:41:09.082Z,20.13
2018-02-23T16:43:37.329Z,26.33
2018-02-23T16:46:06.645Z,22.93
2018-02-23T16:48:35.705Z,26.33
2018-02-23T16:51:04.001Z,27.73
2018-02-23T16:53:32.273Z,30.17
2018-02-23T16:56:00.558Z,29.80
2018-02-23T16:58:28.819Z,24.13
2018-02-23T17:00:57.079Z,25.07
2018-02-23T17:03:25.388Z,26.70
2018-02-23T17:05:53.666Z,22.27
2018-02-23T17:08:21.911Z,31.87
2018-02-23T17:10:50.188Z,29.83
2018-02-23T17:13:18.490Z,28.27
2018-02-23T17:15:46.750Z,26.00
2018-02-23T17:18:15.050Z,27.90
2018-02-23T17:20:43.310Z,29.77
2018-02-23T17:23:11.553Z,29.17
2018-02-23T17:25:39.827Z,23.67
2018-02-23T17:28:08.115Z,24.93
2018-02-23T17:30:36.402Z,25.03
2018-02-23T17:33:04.672Z,24.83
2018-02-23T17:35:32.966Z,25.70
2018-02-23T17:38:01.213Z,26.60
2018-02-23T17:40:29.473Z,25.37
2018-02-23T17:42:58.325Z,29.87
2018-02-23T17:45:26.658Z,27.43
2018-02-23T17:47:54.923Z,24.73
2018-02-23T17:50:23.221Z,28.47
2018-02-23T17:52:51.467Z,29.00
2018-02-23T17:55:20.515Z,27.17
2018-02-23T17:57:48.791Z,28.13
2018-02-23T18:00:17.064Z,30.35
2018-02-23T18:02:45.355Z,30.60
2018-02-23T18:05:13.642Z,32.90
2018-02-23T18:07:42.119Z,36.93
2018-02-23T18:10:10.346Z,31.37
2018-02-23T18:12:39.385Z,30.97
2018-02-23T18:15:07.646Z,35.80
2018-02-23T18:17:35.926Z,54.57
2018-02-23T18:20:04.205Z,32.93
2018-02-23T18:22:33.003Z,35.40
2018-02-23T18:25:02.418Z,28.90
2018-02-23T18:27:31.470Z,28.30
2018-02-23T18:29:59.811Z,31.33
2018-02-23T18:32:28.078Z,38.40
2018-02-23T18:34:56.411Z,32.80
2018-02-23T18:37:24.656Z,28.98
2018-02-23T18:39:52.925Z,32.90
2018-02-23T18:42:21.247Z,33.43
2018-02-23T18:44:49.607Z,31.20
2018-02-23T18:47:17.849Z,37.57
2018-02-23T18:49:46.886Z,33.87
2018-02-23T18:52:15.155Z,32.10
2018-02-23T18:54:43.423Z,34.53
2018-02-23T18:57:11.699Z,29.80
2018-02-23T18:59:39.949Z,37.63
2018-02-23T19:02:08.213Z,32.00
2018-02-23T19:04:36.478Z,34.07
2018-02-23T19:07:04.741Z,30.63
2018-02-23T19:09:33.053Z,32.47
2018-02-23T19:12:01.291Z,37.40
2018-02-23T19:14:29.559Z,38.73
2018-02-23T19:16:58.578Z,31.03
2018-02-23T19:19:26.839Z,32.40
2018-02-23T19:21:55.086Z,38.27
2018-02-23T19:24:23.353Z,37.70
2018-02-23T19:26:51.729Z,36.87
2018-02-23T19:29:20.023Z,38.40
2018-02-23T19:31:48.271Z,32.90
2018-02-23T19:34:16.558Z,38.37
2018-02-23T19:36:44.826Z,32.07
2018-02-23T19:39:13.114Z,38.23
2018-02-23T19:41:41.370Z,37.80
2018-02-23T19:44:10.438Z,32.53
2018-02-23T19:46:38.718Z,35.07
2018-02-23T19:49:06.965Z,34.83
2018-02-23T19:51:35.246Z,47.70
2018-02-23T19:54:03.511Z,37.83
2018-02-23T19:56:31.788Z,40.20
2018-02-23T19:59:00.083Z,41.58
2018-02-23T20:01:28.459Z,39.30
2018-02-23T20:03:56.749Z,37.43
2018-02-23T20:06:25.100Z,36.70
2018-02-23T20:08:54.119Z,46.23
2018-02-23T20:11:22.381Z,38.77
2018-02-23T20:13:50.639Z,37.13
2018-02-23T20:16:19.695Z,39.50
2018-02-23T20:18:47.983Z,40.50
2018-02-23T20:21:16.258Z,41.60
2018-02-23T20:23:44.564Z,41.37
2018-02-23T20:26:12.831Z,49.10
2018-02-23T20:28:41.095Z,43.50
2018-02-23T20:31:09.478Z,42.50
2018-02-23T20:33:37.761Z,42.20
2018-02-23T20:36:06.458Z,40.47
2018-02-23T20:38:34.734Z,43.17
2018-02-23T20:41:03.125Z,43.07
2018-02-23T20:43:31.434Z,39.20
2018-02-23T20:45:59.787Z,50.97
2018-02-23T20:48:28.038Z,46.55
2018-02-23T20:50:56.337Z,45.05
2018-02-23T20:53:24.582Z,42.70
2018-02-23T20:55:52.874Z,42.25
2018-02-23T20:58:21.136Z,47.20
2018-02-23T21:00:50.179Z,49.43
2018-02-23T21:03:18.438Z,38.77
2018-02-23T21:05:46.767Z,50.00
2018-02-23T21:08:15.054Z,44.92
2018-02-23T21:10:43.314Z,46.20
2018-02-23T21:13:11.602Z,44.25
2018-02-23T21:15:39.862Z,44.35
2018-02-23T21:18:08.263Z,44.33
2018-02-23T21:20:36.650Z,50.63
2018-02-23T21:23:05.046Z,47.88
2018-02-23T21:25:33.327Z,48.38
2018-02-23T21:28:01.598Z,45.23
2018-02-23T21:30:29.867Z,55.17
2018-02-23T21:32:58.134Z,41.87
2018-02-23T21:35:26.400Z,46.92
2018-02-23T21:37:54.685Z,56.08
2018-02-23T21:40:22.942Z,44.37
2018-02-23T21:42:51.267Z,42.92
2018-02-23T21:45:19.538Z,50.78
2018-02-23T21:47:47.821Z,43.75
2018-02-23T21:50:16.092Z,45.07
2018-02-23T21:52:44.379Z,42.22
2018-02-23T21:55:12.647Z,48.15
2018-02-23T21:57:40.930Z,39.80
2018-02-23T22:00:09.262Z,44.40
2018-02-23T22:02:37.547Z,43.13
2018-02-23T22:05:05.805Z,48.70
2018-02-23T22:07:34.103Z,38.60
2018-02-23T22:10:02.343Z,43.53
2018-02-23T22:12:30.614Z,47.00
2018-02-23T22:14:58.874Z,41.47
2018-02-23T22:17:27.927Z,41.20
2018-02-23T22:19:56.206Z,39.67
2018-02-23T22:22:24.485Z,43.87
2018-02-23T22:24:52.741Z,50.45
2018-02-23T22:27:21.021Z,43.83
2018-02-23T22:29:49.285Z,46.72
2018-02-23T22:32:18.467Z,41.15
2018-02-23T22:34:46.745Z,39.88
2018-02-23T22:37:15.039Z,41.90
2018-02-23T22:39:44.094Z,38.40
2018-02-23T22:42:12.378Z,47.72
2018-02-23T22:44:40.647Z,39.10
2018-02-23T22:47:08.929Z,52.00
2018-02-23T22:49:37.187Z,34.35
2018-02-23T22:52:05.491Z,46.67
2018-02-23T22:54:33.865Z,44.58
2018-02-23T22:57:02.134Z,39.58
2018-02-23T22:59:30.414Z,40.70
2018-02-23T23:01:58.694Z,41.20
2018-02-23T23:04:26.953Z,37.03
2018-02-23T23:06:56.023Z,39.55
2018-02-23T23:09:24.389Z,44.30
2018-02-23T23:11:52.662Z,38.50
2018-02-23T23:14:20.935Z,38.20
2018-02-23T23:16:49.224Z,42.05
2018-02-23T23:19:17.476Z,40.58
2018-02-23T23:21:45.759Z,38.13
2018-02-23T23:24:14.012Z,40.55
2018-02-23T23:26:43.047Z,38.47
2018-02-23T23:29:11.463Z,51.47
2018-02-23T23:31:40.540Z,47.70
2018-02-23T23:34:08.823Z,43.83
2018-02-23T23:36:37.099Z,35.30
2018-02-23T23:39:05.369Z,38.40
2018-02-23T23:41:33.665Z,41.10
2018-02-23T23:44:01.955Z,38.83
2018-02-23T23:46:30.307Z,40.35
2018-02-23T23:48:58.568Z,35.65
2018-02-23T23:51:26.858Z,36.65
2018-02-23T23:53:55.127Z,37.60
2018-02-23T23:56:24.165Z,39.53
2018-02-23T23:58:52.491Z,36.80
